Weather History for Mount Pleasant, TX

Change the Weather History Date:

Wednesday, March 20, 2013

  Actual Average (KGGG) Record (KGGG)
Temperature  
Mean Temperature 53 °F 59 °F  
Max Temperature 64 °F 70 °F 90 °F (1936)
Min Temperature 42 °F 47 °F 21 °F (1965)
Degree Days  
Heating Degree Days 12 7  
Month to date heating degree days 185  
Since 1 July heating degree days 2089  
Cooling Degree Days 0 1  
Month to date cooling degree days 20  
Year to date cooling degree days 32  
Growing Degree Days 3 (Base 50)    
Moisture  
Dew Point 31 °F    
Average Humidity 44    
Maximum Humidity 71    
Minimum Humidity 24    
Precipitation  
Precipitation 0.00 in 0.14 in 1.92 in (2012)
Month to date precipitation 2.81  
Year to date precipitation 10.17  
Snow  
Snow 0.00 in - - ()
Month to date snowfall  
Since 1 July snowfall  
Snow Depth -    
Sea Level Pressure  
Sea Level Pressure 30.20 in    
Wind  
Wind Speed 6 mph (North)    
Max Wind Speed 17 mph    
Max Gust Speed 23 mph    
Visibility 10 miles    
Events      
T = Trace of Precipitation, MM = Missing Value Source: NWS Daily Summary

Daily Weather History Graph

Daily Weather History Graph

Search for Another Location

Airport:

Trip Planner

Search our weather history database for the weather conditions in past years. The results will help you decide how hot, cold, wet, or windy it might be!

Date:

Astronomy

Mar. 20, 2013 Rise Set
Actual Time 7:23 AM CDT 7:31 PM CDT
Civil Twilight 6:58 AM CDT 7:56 PM CDT
Nautical Twilight 6:29 AM CDT 8:25 PM CDT
Astronomical Twilight 6:00 AM CDT 8:54 PM CDT
Moon 1:23 PM CDT (3/20) 2:46 AM CDT (3/20)
Length of Visible Light 12h 57m
Length of Day
12h 08m
First Quarter, 59% of the Moon is Illuminated
Mar 20
First Quarter
Mar 27
Full
Apr 2
Last Quarter
Apr 10
New
Apr 18
First Quarter

Hourly Weather History & Observations

Time (CDT) Temp. Windchill Dew Point Humidity Pressure Visibility Wind Dir Wind Speed Gust Speed Precip Events Conditions
12:15 AM 55.4 °F - 37.4 °F 51% 30.16 in 10.0 mi NE 6.9 mph - N/A   Clear
12:35 AM 55.4 °F - 35.6 °F 47% 30.16 in 10.0 mi NNE 6.9 mph - N/A   Clear
12:55 AM 53.6 °F - 35.6 °F 51% 30.17 in 10.0 mi NNE 9.2 mph - N/A   Clear
1:15 AM 53.6 °F - 35.6 °F 51% 30.15 in 10.0 mi NNE 10.4 mph - N/A   Clear
1:35 AM 53.6 °F - 35.6 °F 51% 30.16 in 10.0 mi NE 8.1 mph - N/A   Clear
1:55 AM 53.6 °F - 35.6 °F 51% 30.17 in 10.0 mi NE 10.4 mph - N/A   Clear
2:15 AM 53.6 °F - 33.8 °F 47% 30.18 in 10.0 mi ENE 6.9 mph - N/A   Clear
2:35 AM 53.6 °F - 33.8 °F 47% 30.20 in 10.0 mi NNE 8.1 mph - N/A   Clear
2:55 AM 51.8 °F - 33.8 °F 50% 30.21 in 10.0 mi NE 8.1 mph - N/A   Clear
3:15 AM 51.8 °F - 33.8 °F 50% 30.21 in 10.0 mi NNE 5.8 mph - N/A   Clear
3:35 AM 51.8 °F - 33.8 °F 50% 30.20 in 10.0 mi NNE 8.1 mph - N/A   Clear
3:55 AM 50.0 °F - 33.8 °F 54% 30.20 in 10.0 mi NE 5.8 mph - N/A   Clear
4:15 AM 50.0 °F - 33.8 °F 54% 30.20 in 10.0 mi NNE 4.6 mph - N/A   Clear
4:35 AM 48.2 °F - 33.8 °F 58% 30.20 in 10.0 mi Calm Calm - N/A   Clear
4:55 AM 48.2 °F - 32.0 °F 54% 30.20 in 10.0 mi Calm Calm - N/A   Clear
5:15 AM 48.2 °F - 32.0 °F 54% 30.20 in 10.0 mi Calm Calm - N/A   Clear
5:35 AM 46.4 °F 44.3 °F 32.0 °F 57% 30.22 in 10.0 mi North 4.6 mph - N/A   Clear
5:55 AM 46.4 °F 43.5 °F 33.8 °F 62% 30.22 in 10.0 mi NNE 5.8 mph - N/A   Clear
6:15 AM 44.6 °F 42.2 °F 32.0 °F 61% 30.22 in 10.0 mi NNE 4.6 mph - N/A   Clear
6:35 AM 44.6 °F 43.1 °F 32.0 °F 61% 30.23 in 10.0 mi North 3.5 mph - N/A   Clear
6:55 AM 44.6 °F 43.1 °F 32.0 °F 61% 30.25 in 10.0 mi NNW 3.5 mph - N/A   Clear
7:15 AM 44.6 °F 42.2 °F 32.0 °F 61% 30.25 in 10.0 mi North 4.6 mph - N/A   Clear
7:35 AM 42.8 °F 40.1 °F 32.0 °F 66% 30.27 in 10.0 mi North 4.6 mph - N/A   Clear
7:55 AM 42.8 °F 41.1 °F 32.0 °F 66% 30.28 in 10.0 mi North 3.5 mph - N/A   Clear
8:15 AM 44.6 °F - 32.0 °F 61% 30.29 in 10.0 mi Calm Calm - N/A   Clear
8:35 AM 46.4 °F 43.5 °F 32.0 °F 57% 30.30 in 10.0 mi North 5.8 mph - N/A   Clear
8:55 AM 46.4 °F 43.5 °F 32.0 °F 57% 30.30 in 10.0 mi NNE 5.8 mph - N/A   Clear
9:15 AM 50.0 °F - 32.0 °F 50% 30.30 in 10.0 mi NE 5.8 mph - N/A   Clear
9:35 AM 50.0 °F - 32.0 °F 50% 30.31 in 10.0 mi NE 5.8 mph - N/A   Clear
9:55 AM 51.8 °F - 32.0 °F 47% 30.32 in 10.0 mi North 5.8 mph - N/A   Clear
10:15 AM 53.6 °F - 32.0 °F 44% 30.32 in 10.0 mi NE 5.8 mph - N/A   Clear
10:55 AM 55.4 °F - 30.2 °F 38% 30.32 in 10.0 mi NNE 4.6 mph - N/A   Clear
11:15 AM 55.4 °F - 30.2 °F 38% 30.32 in 10.0 mi NNW 3.5 mph - N/A   Clear
11:35 AM 59.0 °F - 30.2 °F 34% 30.31 in 10.0 mi NNE 5.8 mph - N/A   Clear
11:55 AM 59.0 °F - 30.2 °F 34% 30.30 in 10.0 mi NNE 4.6 mph - N/A   Clear
12:15 PM 60.8 °F - 32.0 °F 34% 30.30 in 10.0 mi NNE 8.1 mph - N/A   Clear
12:35 PM 60.8 °F - 30.2 °F 31% 30.29 in 10.0 mi Calm Calm - N/A   Clear
12:55 PM 60.8 °F - 28.4 °F 29% 30.28 in 10.0 mi WNW 4.6 mph 12.7 mph N/A   Clear
1:15 PM 62.6 °F - 28.4 °F 27% 30.27 in 10.0 mi North 6.9 mph 16.1 mph N/A   Clear
1:35 PM 62.6 °F - 30.2 °F 30% 30.26 in 10.0 mi NNE 9.2 mph - N/A   Clear
1:55 PM 62.6 °F - 28.4 °F 27% 30.25 in 10.0 mi NNE 9.2 mph - N/A   Clear
2:15 PM 64.4 °F - 28.4 °F 26% 30.24 in 10.0 mi NNW 11.5 mph - N/A   Clear
2:35 PM 62.6 °F - 26.6 °F 26% 30.23 in 10.0 mi NNW 11.5 mph - N/A   Clear
2:55 PM 64.4 °F - 28.4 °F 26% 30.22 in 10.0 mi NW 17.3 mph 23.0 mph N/A   Clear
3:15 PM 64.4 °F - 28.4 °F 26% 30.20 in 10.0 mi NW 6.9 mph 19.6 mph N/A   Clear
3:35 PM 64.4 °F - 28.4 °F 26% 30.19 in 10.0 mi NNW 12.7 mph 18.4 mph N/A   Clear
3:55 PM 64.4 °F - 26.6 °F 24% 30.18 in 10.0 mi NNW 11.5 mph 17.3 mph N/A   Clear
4:15 PM 64.4 °F - 26.6 °F 24% 30.18 in 10.0 mi North 6.9 mph 17.3 mph N/A   Clear
4:35 PM 64.4 °F - 26.6 °F 24% 30.16 in 10.0 mi NNE 3.5 mph - N/A   Clear
4:55 PM 64.4 °F - 28.4 °F 26% 30.16 in 10.0 mi North 11.5 mph - N/A   Clear
5:15 PM 64.4 °F - 28.4 °F 26% 30.15 in 10.0 mi NNW 4.6 mph - N/A   Clear
5:35 PM 64.4 °F - 28.4 °F 26% 30.14 in 10.0 mi North 6.9 mph - N/A   Clear
5:55 PM 64.4 °F - 28.4 °F 26% 30.14 in 10.0 mi NNW 3.5 mph - N/A   Clear
6:15 PM 62.6 °F - 28.4 °F 27% 30.14 in 10.0 mi NW 6.9 mph - N/A   Clear
6:35 PM 62.6 °F - 28.4 °F 27% 30.13 in 10.0 mi NNW 8.1 mph - N/A   Clear
6:55 PM 60.8 °F - 30.2 °F 31% 30.13 in 10.0 mi North 5.8 mph - N/A   Clear
7:15 PM 60.8 °F - 28.4 °F 29% 30.12 in 10.0 mi Calm Calm - N/A   Clear
7:35 PM 59.0 °F - 28.4 °F 31% 30.13 in 10.0 mi WNW 5.8 mph - N/A   Clear
7:55 PM 59.0 °F - 28.4 °F 31% 30.13 in 10.0 mi NW 4.6 mph - N/A   Clear
8:15 PM 57.2 °F - 26.6 °F 31% 30.12 in 10.0 mi North 4.6 mph - N/A   Clear
8:35 PM 55.4 °F - 28.4 °F 36% 30.12 in 10.0 mi Calm Calm - N/A   Clear
8:55 PM 57.2 °F - 26.6 °F 31% 30.12 in 10.0 mi Calm Calm - N/A   Clear
9:15 PM 55.4 °F - 28.4 °F 36% 30.12 in 10.0 mi North 3.5 mph - N/A   Clear
9:35 PM 50.0 °F - 35.6 °F 58% 30.11 in 10.0 mi Calm Calm - N/A   Clear
9:55 PM 48.2 °F - 35.6 °F 62% 30.11 in 10.0 mi Calm Calm - N/A   Clear
10:15 PM 50.0 °F - 32.0 °F 50% 30.11 in 10.0 mi Calm Calm - N/A   Clear
10:35 PM 48.2 °F - 33.8 °F 58% 30.11 in 10.0 mi Calm Calm - N/A   Clear
10:55 PM 46.4 °F 44.3 °F 37.4 °F 71% 30.11 in 10.0 mi NNE 4.6 mph - N/A   Clear
11:15 PM 46.4 °F 45.2 °F 35.6 °F 66% 30.10 in 10.0 mi North 3.5 mph - N/A   Clear
11:35 PM 48.2 °F - 33.8 °F 58% 30.10 in 10.0 mi NNE 3.5 mph - N/A   Clear
11:55 PM 44.6 °F 43.1 °F 35.6 °F 71% 30.10 in 10.0 mi NNE 3.5 mph - N/A   Clear